createdAt,value
2023-02-16T00:00:47.975Z,-1.32
2023-02-16T00:02:21.036Z,-1.23
2023-02-16T00:03:53.314Z,-1.24
2023-02-16T00:05:26.405Z,-1.31
2023-02-16T00:06:58.001Z,-1.29
2023-02-16T00:08:29.601Z,-1.21
2023-02-16T00:10:01.249Z,-1.26
2023-02-16T00:11:51.960Z,-1.29
2023-02-16T00:13:44.782Z,-1.26
2023-02-16T00:15:17.022Z,-1.20
2023-02-16T00:16:48.724Z,-1.23
2023-02-16T00:18:21.819Z,-1.22
2023-02-16T00:19:53.442Z,-1.24
2023-02-16T00:21:25.163Z,-1.32
2023-02-16T00:22:56.846Z,-1.37
2023-02-16T00:24:29.223Z,-1.34
2023-02-16T00:26:00.865Z,-1.18
2023-02-16T00:27:32.443Z,-1.17
2023-02-16T00:29:04.085Z,-1.02
2023-02-16T00:30:35.702Z,-0.97
2023-02-16T00:32:07.424Z,-1.00
2023-02-16T00:33:40.558Z,-0.99
2023-02-16T00:35:14.366Z,-1.05
2023-02-16T00:36:45.981Z,-1.14
2023-02-16T00:38:17.611Z,-1.11
2023-02-16T00:39:49.216Z,-1.02
2023-02-16T00:41:40.596Z,-1.08
2023-02-16T00:43:19.313Z,-1.21
2023-02-16T00:44:51.694Z,-1.27
2023-02-16T00:46:23.389Z,-1.14
2023-02-16T00:47:55.037Z,-1.05
2023-02-16T00:49:27.992Z,-1.11
2023-02-16T00:50:59.602Z,-1.14
2023-02-16T00:52:34.706Z,-1.13
2023-02-16T00:54:06.333Z,-1.08
2023-02-16T00:55:38.268Z,-1.07
2023-02-16T00:57:10.153Z,-1.11
2023-02-16T00:58:41.835Z,-1.07
2023-02-16T01:00:15.721Z,-1.13
2023-02-16T01:01:47.495Z,-1.03
2023-02-16T01:03:20.936Z,-1.07
2023-02-16T01:04:53.943Z,-0.96
2023-02-16T01:06:44.052Z,-0.92
2023-02-16T01:08:34.993Z,-0.87
2023-02-16T01:10:25.825Z,-0.81
2023-02-16T01:11:57.409Z,-0.92
2023-02-16T01:13:29.271Z,-0.92
2023-02-16T01:15:00.889Z,-0.88
2023-02-16T01:16:35.277Z,-0.86
2023-02-16T01:18:06.982Z,-0.88
2023-02-16T01:19:38.608Z,-0.89
2023-02-16T01:21:11.582Z,-0.88
2023-02-16T01:22:43.216Z,-0.86
2023-02-16T01:24:14.968Z,-0.76
2023-02-16T01:25:46.607Z,-0.71
2023-02-16T01:27:18.261Z,-0.66
2023-02-16T01:28:50.045Z,-0.65
2023-02-16T01:30:22.736Z,-0.66
2023-02-16T01:31:54.560Z,-0.63
2023-02-16T01:33:26.438Z,-0.66
2023-02-16T01:34:58.104Z,-0.65
2023-02-16T01:36:33.219Z,-0.69
2023-02-16T01:38:04.854Z,-0.64
2023-02-16T01:39:36.501Z,-0.67
2023-02-16T01:41:22.447Z,-0.67
2023-02-16T01:42:55.197Z,-0.68
2023-02-16T01:44:28.189Z,-0.79
2023-02-16T01:46:02.211Z,-0.75
2023-02-16T01:47:36.576Z,-0.78
2023-02-16T01:49:11.538Z,-0.75
2023-02-16T01:50:44.857Z,-0.87
2023-02-16T01:52:21.378Z,-0.89
2023-02-16T01:53:54.954Z,-1.00
2023-02-16T01:55:28.458Z,-1.06
2023-02-16T01:57:03.212Z,-1.05
2023-02-16T01:58:37.690Z,-1.12
2023-02-16T02:00:12.876Z,-1.15
2023-02-16T02:01:46.913Z,-1.05
2023-02-16T02:03:38.307Z,-0.90
2023-02-16T02:05:37.331Z,-0.96
2023-02-16T02:07:10.268Z,-0.95
2023-02-16T02:08:45.246Z,-0.83
2023-02-16T02:10:19.888Z,-0.84
2023-02-16T02:11:54.202Z,-1.02
2023-02-16T02:13:28.690Z,-1.13
2023-02-16T02:15:00.325Z,-1.07
2023-02-16T02:16:31.940Z,-1.09
2023-02-16T02:18:03.731Z,-0.96
2023-02-16T02:19:41.435Z,-0.96
2023-02-16T02:21:56.780Z,-1.00
2023-02-16T02:23:38.262Z,-1.16
2023-02-16T02:25:33.060Z,-1.12
2023-02-16T02:27:12.094Z,-1.24
2023-02-16T02:28:47.500Z,-1.22
2023-02-16T02:30:25.100Z,-1.21
2023-02-16T02:32:00.161Z,-1.32
2023-02-16T02:33:42.396Z,-1.58
2023-02-16T02:35:21.985Z,-1.44
2023-02-16T02:36:58.832Z,-1.42
2023-02-16T02:38:32.788Z,-1.32
2023-02-16T02:40:06.222Z,-1.18
2023-02-16T02:41:57.163Z,-1.20
2023-02-16T02:43:31.975Z,-1.49
2023-02-16T02:45:06.387Z,-1.49
2023-02-16T02:46:38.005Z,-1.46
2023-02-16T02:48:09.942Z,-1.49
2023-02-16T02:49:48.211Z,-1.44
2023-02-16T02:51:28.905Z,-1.46
2023-02-16T02:53:01.915Z,-1.53
2023-02-16T02:54:53.147Z,-1.45
2023-02-16T02:56:43.700Z,-1.43
2023-02-16T02:58:34.151Z,-1.37
2023-02-16T03:00:27.130Z,-1.46
2023-02-16T03:01:59.218Z,-1.40
2023-02-16T03:03:32.179Z,-1.53
2023-02-16T03:05:04.271Z,-1.53
2023-02-16T03:06:37.041Z,-1.39
2023-02-16T03:08:14.253Z,-1.34
2023-02-16T03:09:45.919Z,-1.46
2023-02-16T03:11:37.337Z,-1.48
2023-02-16T03:13:12.164Z,-1.36
2023-02-16T03:14:44.646Z,-1.23
2023-02-16T03:16:20.201Z,-1.25
2023-02-16T03:18:10.685Z,-1.40
2023-02-16T03:20:01.729Z,-1.43
2023-02-16T03:21:52.070Z,-1.47
2023-02-16T03:23:42.207Z,-1.43
2023-02-16T03:25:32.619Z,-1.41
2023-02-16T03:27:22.786Z,-1.37
2023-02-16T03:29:13.229Z,-1.33
2023-02-16T03:30:44.945Z,-1.28
2023-02-16T03:32:17.990Z,-1.33
2023-02-16T03:33:54.586Z,-1.34
2023-02-16T03:35:26.318Z,-1.35
2023-02-16T03:36:58.980Z,-1.33
2023-02-16T03:38:30.647Z,-1.20
2023-02-16T03:40:20.788Z,-1.22
2023-02-16T03:41:53.437Z,-1.29
2023-02-16T03:43:25.534Z,-1.32
2023-02-16T03:44:57.125Z,-1.30
2023-02-16T03:46:28.710Z,-1.29
2023-02-16T03:48:01.791Z,-1.29
2023-02-16T03:49:33.443Z,-1.23
2023-02-16T03:51:05.617Z,-1.19
2023-02-16T03:52:37.504Z,-1.37
2023-02-16T03:54:09.174Z,-1.23
2023-02-16T03:55:41.460Z,-1.22
2023-02-16T03:57:13.155Z,-1.23
2023-02-16T03:58:44.777Z,-1.35
2023-02-16T04:00:16.945Z,-1.35
2023-02-16T04:01:48.601Z,-1.33
2023-02-16T04:03:21.681Z,-1.25
2023-02-16T04:04:53.311Z,-1.26
2023-02-16T04:06:24.942Z,-1.28
2023-02-16T04:07:56.548Z,-1.30
2023-02-16T04:09:28.186Z,-1.21
2023-02-16T04:11:00.448Z,-1.10
2023-02-16T04:12:38.011Z,-1.22
2023-02-16T04:14:09.612Z,-1.25
2023-02-16T04:15:44.174Z,-1.12
2023-02-16T04:17:16.255Z,-1.26
2023-02-16T04:18:49.392Z,-1.28
2023-02-16T04:20:23.364Z,-1.15
2023-02-16T04:21:54.971Z,-1.07
2023-02-16T04:23:26.665Z,-1.19
2023-02-16T04:24:58.315Z,-1.18
2023-02-16T04:26:29.945Z,-1.17
2023-02-16T04:28:01.687Z,-1.19
2023-02-16T04:29:33.432Z,-1.11
2023-02-16T04:31:05.822Z,-1.23
2023-02-16T04:32:37.733Z,-1.20
2023-02-16T04:34:10.745Z,-1.03
2023-02-16T04:35:42.344Z,-1.09
2023-02-16T04:37:14.054Z,-1.16
2023-02-16T04:38:45.702Z,-1.00
2023-02-16T04:40:17.819Z,-0.99
2023-02-16T04:41:49.474Z,-1.12
2023-02-16T04:43:21.172Z,-1.24
2023-02-16T04:44:53.404Z,-1.19
2023-02-16T04:46:25.151Z,-1.26
2023-02-16T04:47:56.858Z,-1.26
2023-02-16T04:49:29.868Z,-1.26
2023-02-16T04:51:04.016Z,-1.31
2023-02-16T04:52:36.832Z,-1.32
2023-02-16T04:54:08.580Z,-1.21
2023-02-16T04:55:40.245Z,-1.18
2023-02-16T04:57:11.915Z,-1.19
2023-02-16T04:58:43.568Z,-1.34
2023-02-16T05:00:15.637Z,-1.24
2023-02-16T05:01:47.440Z,-1.19
2023-02-16T05:03:19.085Z,-1.09
2023-02-16T05:04:52.200Z,-1.18
2023-02-16T05:06:23.868Z,-1.09
2023-02-16T05:07:55.550Z,-1.01
2023-02-16T05:09:27.266Z,-1.02
2023-02-16T05:11:17.498Z,-1.08
2023-02-16T05:13:07.939Z,-1.08
2023-02-16T05:14:42.388Z,-1.11
2023-02-16T05:16:14.111Z,-1.16
2023-02-16T05:17:46.099Z,-1.31
2023-02-16T05:19:17.718Z,-1.29
2023-02-16T05:21:09.004Z,-1.26
2023-02-16T05:22:40.701Z,-1.20
2023-02-16T05:24:12.456Z,-1.23
2023-02-16T05:25:44.081Z,-1.15
2023-02-16T05:27:17.165Z,-1.20
2023-02-16T05:28:48.800Z,-1.04
2023-02-16T05:30:20.901Z,-1.06
2023-02-16T05:31:52.746Z,-1.14
2023-02-16T05:33:24.523Z,-1.29
2023-02-16T05:34:56.197Z,-1.30
2023-02-16T05:36:29.267Z,-1.29
2023-02-16T05:38:00.921Z,-1.27
2023-02-16T05:39:32.644Z,-1.29
2023-02-16T05:41:04.891Z,-1.31
2023-02-16T05:42:36.657Z,-1.19
2023-02-16T05:44:08.606Z,-0.98
2023-02-16T05:45:40.246Z,-1.07
2023-02-16T05:47:12.574Z,-1.13
2023-02-16T05:48:44.198Z,-1.26
2023-02-16T05:50:15.826Z,-1.33
2023-02-16T05:51:48.882Z,-1.25
2023-02-16T05:53:20.543Z,-1.15
2023-02-16T05:54:52.318Z,-1.30
2023-02-16T05:56:23.931Z,-1.28
2023-02-16T05:57:55.552Z,-1.23
2023-02-16T05:59:27.258Z,-1.15
2023-02-16T06:00:58.958Z,-1.09
2023-02-16T06:02:30.714Z,-1.01
2023-02-16T06:04:02.490Z,-1.12
2023-02-16T06:05:34.119Z,-1.12
2023-02-16T06:07:07.128Z,-1.09
2023-02-16T06:08:39.017Z,-1.11
2023-02-16T06:10:11.103Z,-1.16
2023-02-16T06:11:42.725Z,-1.24
2023-02-16T06:13:15.296Z,-1.21
2023-02-16T06:14:46.917Z,-1.10
2023-02-16T06:16:18.595Z,-1.09
2023-02-16T06:17:50.410Z,-1.14
2023-02-16T06:19:22.265Z,-1.00
2023-02-16T06:20:56.922Z,-1.03
2023-02-16T06:22:32.382Z,-0.93
2023-02-16T06:24:04.490Z,-0.93
2023-02-16T06:25:36.153Z,-0.98
2023-02-16T06:27:07.845Z,-0.87
2023-02-16T06:28:39.494Z,-0.75
2023-02-16T06:30:12.514Z,-0.81
2023-02-16T06:31:44.314Z,-0.80
2023-02-16T06:33:16.043Z,-0.76
2023-02-16T06:34:47.675Z,-0.92
2023-02-16T06:36:19.476Z,-0.96
2023-02-16T06:37:52.618Z,-0.97
2023-02-16T06:39:24.320Z,-0.93
2023-02-16T06:40:55.978Z,-0.93
2023-02-16T06:42:27.702Z,-1.06
2023-02-16T06:43:59.416Z,-1.05
2023-02-16T06:45:31.035Z,-1.00
2023-02-16T06:47:02.621Z,-0.89
2023-02-16T06:48:34.436Z,-1.01
2023-02-16T06:50:07.473Z,-1.05
2023-02-16T06:51:39.101Z,-1.03
2023-02-16T06:53:12.202Z,-1.13
2023-02-16T06:54:43.919Z,-1.11
2023-02-16T06:56:15.540Z,-1.00
2023-02-16T06:57:47.195Z,-1.08
2023-02-16T06:59:18.859Z,-0.95
2023-02-16T07:00:50.500Z,-0.92
2023-02-16T07:02:22.125Z,-0.93
2023-02-16T07:03:54.345Z,-0.86
2023-02-16T07:05:26.111Z,-0.98
2023-02-16T07:06:57.760Z,-1.00
2023-02-16T07:08:30.764Z,-1.00
2023-02-16T07:10:02.795Z,-0.99
2023-02-16T07:11:34.410Z,-0.91
2023-02-16T07:13:05.970Z,-0.96
2023-02-16T07:14:37.654Z,-0.92
2023-02-16T07:16:09.329Z,-0.83
2023-02-16T07:17:40.985Z,-0.91
2023-02-16T07:19:13.434Z,-0.90
2023-02-16T07:20:45.093Z,-0.79
2023-02-16T07:22:17.776Z,-0.87
2023-02-16T07:23:53.334Z,-0.84
2023-02-16T07:25:28.663Z,-0.82
2023-02-16T07:27:00.468Z,-0.78
2023-02-16T07:28:32.131Z,-0.75
2023-02-16T07:30:03.980Z,-0.88
2023-02-16T07:31:35.742Z,-0.83
2023-02-16T07:33:07.466Z,-0.84
2023-02-16T07:34:39.811Z,-0.78
2023-02-16T07:36:12.148Z,-0.86
2023-02-16T07:37:43.772Z,-0.93
2023-02-16T07:39:16.719Z,-0.87
2023-02-16T07:40:48.277Z,-0.89
2023-02-16T07:42:20.066Z,-0.91
2023-02-16T07:43:51.790Z,-0.91
2023-02-16T07:45:23.471Z,-0.95
2023-02-16T07:46:55.054Z,-0.92
2023-02-16T07:48:26.872Z,-0.95
2023-02-16T07:49:58.525Z,-0.91
2023-02-16T07:51:30.789Z,-0.96
2023-02-16T07:53:02.973Z,-0.81
2023-02-16T07:54:35.942Z,-0.79
2023-02-16T07:56:07.569Z,-0.71
2023-02-16T07:57:39.809Z,-0.77
2023-02-16T07:59:11.778Z,-0.80
2023-02-16T08:00:43.403Z,-0.78
2023-02-16T08:02:15.928Z,-0.70
2023-02-16T08:03:47.722Z,-0.64
2023-02-16T08:05:19.719Z,-0.64
2023-02-16T08:06:51.394Z,-0.58
2023-02-16T08:08:23.032Z,-0.45
2023-02-16T08:09:56.053Z,-0.52
2023-02-16T08:11:27.688Z,-0.52
2023-02-16T08:12:59.508Z,-0.51
2023-02-16T08:14:31.149Z,-0.54
2023-02-16T08:16:03.119Z,-0.44
2023-02-16T08:17:34.902Z,-0.29
2023-02-16T08:19:06.764Z,-0.23
2023-02-16T08:20:57.565Z,-0.20
2023-02-16T08:22:30.752Z,-0.14
2023-02-16T08:24:03.498Z,-0.17
2023-02-16T08:25:36.651Z,-0.33
2023-02-16T08:27:08.418Z,-0.33
2023-02-16T08:28:46.220Z,-0.26
2023-02-16T08:30:18.445Z,-0.21
2023-02-16T08:31:50.557Z,-0.10
2023-02-16T08:33:22.220Z,-0.15
2023-02-16T08:34:53.881Z,-0.05
2023-02-16T08:36:26.470Z,-0.07
2023-02-16T08:37:58.428Z,-0.10
2023-02-16T08:39:31.365Z,-0.10
2023-02-16T08:41:04.712Z,-0.05
2023-02-16T08:42:36.672Z,-0.16
2023-02-16T08:44:08.935Z,-0.19
2023-02-16T08:45:43.983Z,-0.19
2023-02-16T08:47:16.855Z,-0.14
2023-02-16T08:48:48.601Z,-0.01
2023-02-16T08:50:20.374Z,-0.14
2023-02-16T08:51:52.825Z,-0.02
2023-02-16T08:53:25.306Z,0.08
2023-02-16T08:54:56.946Z,-0.02
2023-02-16T08:56:30.139Z,-0.05
2023-02-16T08:58:01.841Z,-0.14
2023-02-16T08:59:34.920Z,-0.03
2023-02-16T09:01:08.212Z,-0.07
2023-02-16T09:02:39.939Z,0.02
2023-02-16T09:04:11.880Z,-0.09
2023-02-16T09:05:43.599Z,-0.22
2023-02-16T09:07:15.387Z,-0.28
2023-02-16T09:08:50.599Z,-0.02
2023-02-16T09:10:23.004Z,-0.03
2023-02-16T09:11:57.457Z,-0.07
2023-02-16T09:13:29.141Z,-0.01
2023-02-16T09:15:01.255Z,-0.02
2023-02-16T09:16:38.776Z,-0.13
2023-02-16T09:18:10.473Z,-0.14
2023-02-16T09:19:43.622Z,-0.34
2023-02-16T09:21:16.310Z,-0.47
2023-02-16T09:22:48.502Z,-0.49
2023-02-16T09:24:20.220Z,-0.20
2023-02-16T09:25:51.874Z,-0.18
2023-02-16T09:27:24.965Z,-0.04
2023-02-16T09:28:58.817Z,-0.05
2023-02-16T09:30:31.660Z,0.09
2023-02-16T09:32:03.443Z,0.01
2023-02-16T09:33:35.129Z,0.05
2023-02-16T09:35:07.765Z,0.06
2023-02-16T09:36:39.468Z,0.11
2023-02-16T09:38:11.125Z,0.18
2023-02-16T09:39:42.790Z,-0.15
2023-02-16T09:41:19.898Z,-0.01
2023-02-16T09:42:59.661Z,0.06
2023-02-16T09:44:38.024Z,-0.16
2023-02-16T09:46:11.656Z,0.02
2023-02-16T09:47:44.979Z,0.19
2023-02-16T09:49:24.031Z,-0.04
2023-02-16T09:50:55.735Z,0.26
2023-02-16T09:52:32.301Z,-0.02
2023-02-16T09:54:11.899Z,-0.01
2023-02-16T09:55:47.351Z,0.15
2023-02-16T09:57:22.812Z,0.35
2023-02-16T09:58:58.158Z,0.62
2023-02-16T10:00:44.275Z,0.77
2023-02-16T10:02:28.585Z,0.46
2023-02-16T10:04:12.033Z,0.12
2023-02-16T10:05:45.437Z,0.48
2023-02-16T10:07:29.449Z,0.62
2023-02-16T10:09:04.341Z,0.62
2023-02-16T10:10:41.273Z,0.70
2023-02-16T10:12:14.299Z,0.70
2023-02-16T10:13:49.597Z,0.75
2023-02-16T10:15:23.470Z,0.80
2023-02-16T10:16:57.602Z,0.83
2023-02-16T10:18:31.191Z,0.88
2023-02-16T10:20:06.142Z,1.04
2023-02-16T10:21:37.762Z,1.14
2023-02-16T10:23:13.787Z,1.13
2023-02-16T10:24:51.434Z,0.91
2023-02-16T10:26:24.620Z,0.93
2023-02-16T10:27:59.117Z,1.01
2023-02-16T10:29:31.176Z,1.16
2023-02-16T10:31:10.058Z,1.29
2023-02-16T10:32:55.233Z,1.23
2023-02-16T10:34:35.286Z,1.11
2023-02-16T10:36:14.915Z,0.94
2023-02-16T10:37:56.318Z,1.02
2023-02-16T10:39:30.297Z,1.20
2023-02-16T10:41:05.307Z,1.40
2023-02-16T10:42:41.534Z,1.37
2023-02-16T10:44:15.415Z,1.17
2023-02-16T10:45:51.984Z,1.38
2023-02-16T10:47:30.087Z,1.42
2023-02-16T10:49:02.140Z,1.53
2023-02-16T10:50:37.822Z,1.60
2023-02-16T10:52:09.531Z,1.49
2023-02-16T10:53:44.015Z,1.48
2023-02-16T10:55:16.121Z,1.57
2023-02-16T10:56:52.411Z,1.65
2023-02-16T10:58:26.488Z,1.50
2023-02-16T10:59:58.390Z,1.39
2023-02-16T11:01:33.562Z,1.37
2023-02-16T11:03:10.940Z,1.52
2023-02-16T11:04:43.812Z,1.58
2023-02-16T11:06:16.698Z,1.61
2023-02-16T11:07:52.541Z,1.44
2023-02-16T11:09:27.853Z,1.74
2023-02-16T11:10:59.600Z,1.72
2023-02-16T11:12:32.541Z,1.84
2023-02-16T11:14:06.911Z,2.12
2023-02-16T11:15:40.755Z,2.13
2023-02-16T11:17:13.754Z,1.94
2023-02-16T11:18:49.685Z,2.00
2023-02-16T11:20:28.758Z,2.17
2023-02-16T11:22:00.951Z,1.91
2023-02-16T11:23:34.245Z,2.13
2023-02-16T11:25:23.450Z,2.07
2023-02-16T11:27:02.896Z,1.99
2023-02-16T11:28:36.074Z,1.88
2023-02-16T11:30:22.163Z,2.11
2023-02-16T11:31:54.219Z,2.22
2023-02-16T11:33:29.779Z,2.05
2023-02-16T11:35:02.763Z,1.87
2023-02-16T11:36:35.711Z,2.04
2023-02-16T11:38:23.519Z,2.01
2023-02-16T11:39:56.299Z,2.10
2023-02-16T11:41:33.481Z,2.28
2023-02-16T11:43:06.265Z,1.97
2023-02-16T11:44:41.399Z,2.10
2023-02-16T11:46:15.632Z,2.34
2023-02-16T11:47:54.992Z,2.30
2023-02-16T11:49:31.364Z,2.19
2023-02-16T11:51:11.394Z,2.27
2023-02-16T11:52:43.089Z,2.27
2023-02-16T11:54:20.903Z,2.52
2023-02-16T11:56:10.763Z,2.41
2023-02-16T11:57:42.546Z,2.19
2023-02-16T11:59:16.026Z,2.13
2023-02-16T12:01:02.068Z,2.19
2023-02-16T12:02:46.442Z,2.17
2023-02-16T12:04:22.569Z,1.97
2023-02-16T12:06:02.286Z,2.22
2023-02-16T12:07:38.386Z,2.26
2023-02-16T12:09:20.104Z,2.13
2023-02-16T12:11:01.421Z,2.06
2023-02-16T12:12:34.863Z,2.48
2023-02-16T12:14:27.514Z,2.25
2023-02-16T12:16:02.101Z,2.32
2023-02-16T12:17:42.637Z,2.57
2023-02-16T12:19:24.385Z,2.04
2023-02-16T12:20:59.047Z,2.41
2023-02-16T12:22:34.322Z,2.46
2023-02-16T12:24:13.916Z,2.39
2023-02-16T12:25:48.765Z,2.10
2023-02-16T12:27:22.360Z,2.22
2023-02-16T12:28:57.958Z,2.52
2023-02-16T12:30:37.069Z,2.67
2023-02-16T12:32:30.313Z,2.74
2023-02-16T12:34:07.907Z,2.78
2023-02-16T12:35:58.873Z,2.29
2023-02-16T12:37:36.038Z,2.88
2023-02-16T12:39:22.168Z,2.81
2023-02-16T12:40:58.547Z,2.97
2023-02-16T12:42:41.001Z,2.84
2023-02-16T12:44:16.066Z,2.99
2023-02-16T12:45:48.171Z,2.89
2023-02-16T12:47:24.496Z,2.90
2023-02-16T12:48:57.418Z,3.09
2023-02-16T12:50:29.630Z,3.14
2023-02-16T12:52:05.307Z,3.22
2023-02-16T12:53:41.234Z,2.57
2023-02-16T12:55:20.041Z,2.49
2023-02-16T12:56:54.394Z,2.45
2023-02-16T12:58:28.847Z,2.70
2023-02-16T13:00:03.467Z,2.64
2023-02-16T13:01:35.765Z,2.58
2023-02-16T13:03:15.194Z,2.62
2023-02-16T13:04:48.220Z,2.73
2023-02-16T13:06:22.731Z,2.72
2023-02-16T13:07:56.509Z,2.34
2023-02-16T13:09:34.478Z,2.53
2023-02-16T13:11:12.080Z,3.15
2023-02-16T13:12:47.318Z,3.07
2023-02-16T13:14:21.914Z,3.17
2023-02-16T13:15:58.238Z,3.17
2023-02-16T13:17:33.037Z,3.05
2023-02-16T13:19:04.874Z,2.99
2023-02-16T13:20:36.452Z,2.54
2023-02-16T13:22:36.624Z,3.12
2023-02-16T13:24:11.442Z,3.55
2023-02-16T13:26:01.181Z,2.93
2023-02-16T13:27:38.112Z,3.58
2023-02-16T13:29:34.218Z,3.86
2023-02-16T13:31:22.750Z,4.59
2023-02-16T13:33:05.067Z,5.06
2023-02-16T13:34:46.948Z,4.78
2023-02-16T13:36:35.968Z,5.60
2023-02-16T13:38:19.140Z,6.06
2023-02-16T13:39:58.303Z,6.28
2023-02-16T13:42:02.391Z,6.86
2023-02-16T13:43:35.700Z,6.67
2023-02-16T13:45:13.442Z,5.74
2023-02-16T13:46:49.991Z,5.84
2023-02-16T13:48:23.386Z,6.32
2023-02-16T13:49:59.958Z,6.19
2023-02-16T13:51:40.675Z,7.07
2023-02-16T13:53:17.674Z,6.86
2023-02-16T13:54:50.079Z,7.33
2023-02-16T13:56:37.080Z,7.59
2023-02-16T13:58:32.619Z,7.49
2023-02-16T14:00:07.502Z,7.01
2023-02-16T14:01:43.027Z,7.32
2023-02-16T14:03:41.403Z,7.39
2023-02-16T14:05:28.502Z,6.85
2023-02-16T14:07:21.086Z,7.52
2023-02-16T14:09:36.452Z,7.71
2023-02-16T14:11:09.920Z,7.08
2023-02-16T14:12:42.039Z,6.64
2023-02-16T14:14:28.746Z,7.18
2023-02-16T14:16:08.355Z,7.60
2023-02-16T14:23:07.728Z,7.05
2023-02-16T14:25:09.777Z,6.98
2023-02-16T14:26:56.935Z,7.06
2023-02-16T14:29:26.572Z,7.80
2023-02-16T14:30:59.067Z,7.37
2023-02-16T14:33:15.344Z,7.07
2023-02-16T14:34:50.332Z,6.93
2023-02-16T14:36:27.042Z,6.57
2023-02-16T14:38:06.122Z,6.77
2023-02-16T14:40:19.852Z,6.62
2023-02-16T14:41:53.944Z,6.71
2023-02-16T14:43:44.931Z,6.63
2023-02-16T14:45:53.722Z,6.66
2023-02-16T15:07:10.939Z,6.63
2023-02-16T15:08:49.353Z,6.69
2023-02-16T15:10:26.904Z,6.71
2023-02-16T15:14:03.397Z,6.74
2023-02-16T15:15:48.992Z,6.82
2023-02-16T15:17:42.081Z,6.59
2023-02-16T15:19:23.772Z,6.62
2023-02-16T15:21:05.460Z,6.63
2023-02-16T15:25:39.810Z,6.35
2023-02-16T15:27:54.348Z,6.28
2023-02-16T15:29:40.636Z,6.30
2023-02-16T15:31:26.126Z,6.20
2023-02-16T15:33:26.098Z,6.22
2023-02-16T15:35:26.659Z,6.13
2023-02-16T15:37:02.545Z,5.95
2023-02-16T15:39:10.288Z,5.83
2023-02-16T15:40:48.218Z,5.72
2023-02-16T15:42:33.794Z,5.54
2023-02-16T15:44:28.761Z,5.57
2023-02-16T15:46:05.948Z,5.41
2023-02-16T15:47:45.839Z,5.33
2023-02-16T15:49:55.796Z,5.49
2023-02-16T15:51:35.671Z,5.19
2023-02-16T15:53:22.293Z,5.28
2023-02-16T15:55:03.954Z,5.39
2023-02-16T15:56:54.544Z,5.19
2023-02-16T15:58:30.395Z,5.38
2023-02-16T16:00:08.110Z,5.29
2023-02-16T16:01:41.904Z,5.10
2023-02-16T16:03:27.864Z,4.95
2023-02-16T16:05:16.195Z,5.22
2023-02-16T16:06:58.348Z,5.07
2023-02-16T16:08:41.088Z,5.12
2023-02-16T16:10:16.164Z,5.16
2023-02-16T16:11:53.944Z,5.14
2023-02-16T16:15:46.865Z,5.13
2023-02-16T16:20:01.658Z,5.14
2023-02-16T16:21:36.571Z,5.07
2023-02-16T16:23:25.113Z,4.97
2023-02-16T16:25:18.957Z,4.90
2023-02-16T16:27:42.855Z,4.83
2023-02-16T16:32:46.462Z,4.88
2023-02-16T16:36:49.602Z,4.99
2023-02-16T16:41:45.995Z,4.90
2023-02-16T16:44:28.941Z,4.97
2023-02-16T16:49:40.603Z,4.85
2023-02-16T16:52:16.968Z,4.87
2023-02-16T16:54:03.798Z,4.79
2023-02-16T16:56:02.393Z,4.74
2023-02-16T16:57:47.906Z,4.78
2023-02-16T17:03:56.762Z,4.77
2023-02-16T17:05:58.356Z,4.79
2023-02-16T17:07:51.263Z,4.72
2023-02-16T17:12:12.541Z,4.62
2023-02-16T17:13:53.342Z,4.50
2023-02-16T17:18:17.845Z,4.62
2023-02-16T17:19:53.567Z,4.58
2023-02-16T17:21:52.135Z,4.39
2023-02-16T17:23:29.565Z,4.45
2023-02-16T17:25:47.505Z,4.38
2023-02-16T17:29:22.598Z,4.23
2023-02-16T17:33:34.694Z,4.36
2023-02-16T17:36:18.362Z,4.42
2023-02-16T17:40:21.088Z,4.46
2023-02-16T17:42:50.764Z,4.43
2023-02-16T17:45:48.848Z,4.47
2023-02-16T17:48:48.790Z,4.44
2023-02-16T17:52:24.066Z,4.32
2023-02-16T17:54:55.820Z,4.38
2023-02-16T17:56:43.464Z,4.33
2023-02-16T18:01:52.970Z,4.28
2023-02-16T18:18:04.119Z,4.37
2023-02-16T18:19:36.053Z,4.26
2023-02-16T18:21:08.108Z,4.29
2023-02-16T18:22:40.032Z,4.27
2023-02-16T18:24:11.965Z,4.30
2023-02-16T18:25:44.316Z,4.35
2023-02-16T18:27:16.304Z,4.29
2023-02-16T18:28:48.164Z,4.27
2023-02-16T18:30:20.369Z,4.27
2023-02-16T18:31:52.380Z,4.23
2023-02-16T18:33:25.979Z,4.26
2023-02-16T18:34:57.819Z,4.24
2023-02-16T18:36:29.779Z,4.29
2023-02-16T18:38:01.691Z,4.27
2023-02-16T18:39:33.753Z,4.28
2023-02-16T18:41:05.621Z,4.25
2023-02-16T18:42:37.430Z,4.25
2023-02-16T18:44:09.375Z,4.31
2023-02-16T18:45:41.456Z,4.33
2023-02-16T18:47:13.465Z,4.32
2023-02-16T18:48:47.013Z,4.31
2023-02-16T18:50:19.127Z,4.24
2023-02-16T18:51:50.948Z,4.22
2023-02-16T18:53:22.909Z,4.22
2023-02-16T18:54:54.850Z,4.21
2023-02-16T18:56:27.622Z,4.18
2023-02-16T18:58:01.267Z,4.15
2023-02-16T18:59:33.097Z,4.14
2023-02-16T19:01:12.196Z,4.19
2023-02-16T19:02:44.163Z,4.20
2023-02-16T19:04:17.413Z,4.16
2023-02-16T19:05:49.318Z,4.16
2023-02-16T19:07:21.250Z,4.21
2023-02-16T19:08:52.993Z,4.17
2023-02-16T19:10:25.231Z,4.17
2023-02-16T19:11:56.928Z,4.17
2023-02-16T19:13:28.832Z,4.16
2023-02-16T19:15:00.596Z,4.18
2023-02-16T19:16:32.393Z,4.16
2023-02-16T19:18:04.714Z,4.16
2023-02-16T19:19:38.482Z,4.10
2023-02-16T19:21:10.927Z,4.11
2023-02-16T19:22:42.656Z,4.12
2023-02-16T19:24:14.443Z,4.08
2023-02-16T19:25:46.298Z,4.09
2023-02-16T19:27:18.478Z,4.02
2023-02-16T19:28:50.379Z,3.98
2023-02-16T19:30:24.286Z,4.10
2023-02-16T19:31:56.156Z,4.08
2023-02-16T19:33:28.071Z,4.06
2023-02-16T19:35:01.548Z,4.02
2023-02-16T19:36:34.245Z,4.06
2023-02-16T19:38:06.066Z,4.09
2023-02-16T19:39:37.856Z,4.02
2023-02-16T19:41:11.871Z,4.13
2023-02-16T19:42:43.788Z,4.26
2023-02-16T19:44:15.632Z,4.28
2023-02-16T19:45:49.370Z,4.35
2023-02-16T19:47:21.365Z,4.35
2023-02-16T19:48:54.184Z,4.32
2023-02-16T19:50:27.349Z,4.32
2023-02-16T19:52:02.406Z,4.27
2023-02-16T19:53:34.416Z,4.22
2023-02-16T19:55:06.774Z,4.15
2023-02-16T19:56:40.569Z,4.16
2023-02-16T19:58:12.422Z,4.17
2023-02-16T19:59:44.496Z,4.17
2023-02-16T20:01:22.765Z,4.15
2023-02-16T20:02:54.809Z,4.10
2023-02-16T20:04:26.802Z,4.07
2023-02-16T20:06:00.075Z,4.10
2023-02-16T20:07:33.692Z,4.12
2023-02-16T20:09:05.727Z,4.03
2023-02-16T20:10:39.402Z,4.06
2023-02-16T20:12:12.275Z,4.09
2023-02-16T20:13:44.307Z,4.10
2023-02-16T20:15:18.495Z,4.17
2023-02-16T20:16:51.849Z,4.18
2023-02-16T20:18:25.156Z,4.15
2023-02-16T20:19:57.073Z,4.15
2023-02-16T20:21:30.245Z,4.19
2023-02-16T20:23:02.010Z,4.18
2023-02-16T20:24:33.920Z,4.19
2023-02-16T20:26:07.174Z,4.19
2023-02-16T20:27:39.160Z,4.12
2023-02-16T20:29:11.918Z,4.10
2023-02-16T20:30:43.700Z,4.11
2023-02-16T20:32:15.641Z,4.19
2023-02-16T20:33:47.661Z,4.16
2023-02-16T20:35:19.595Z,4.10
2023-02-16T20:36:52.882Z,4.11
2023-02-16T20:38:24.653Z,4.23
2023-02-16T20:39:56.564Z,4.24
2023-02-16T20:41:28.362Z,4.17
2023-02-16T20:43:00.156Z,4.14
2023-02-16T20:44:31.963Z,4.11
2023-02-16T20:46:04.420Z,4.07
2023-02-16T20:47:36.438Z,4.02
2023-02-16T20:49:08.358Z,3.99
2023-02-16T20:50:40.193Z,3.99
2023-02-16T20:52:13.414Z,4.00
2023-02-16T20:53:45.184Z,4.03
2023-02-16T20:55:19.745Z,4.01
2023-02-16T20:56:51.655Z,3.99
2023-02-16T20:58:23.455Z,3.98
2023-02-16T20:59:55.400Z,3.99
2023-02-16T21:01:29.081Z,3.97
2023-02-16T21:03:00.917Z,3.93
2023-02-16T21:04:32.896Z,3.90
2023-02-16T21:06:07.154Z,3.88
2023-02-16T21:07:40.809Z,3.91
2023-02-16T21:09:12.842Z,3.90
2023-02-16T21:10:44.623Z,3.91
2023-02-16T21:12:16.575Z,3.97
2023-02-16T21:13:48.428Z,3.97
2023-02-16T21:15:22.319Z,3.93
2023-02-16T21:16:54.066Z,3.97
2023-02-16T21:18:25.914Z,3.97
2023-02-16T21:19:58.926Z,3.99
2023-02-16T21:21:30.666Z,3.97
2023-02-16T21:23:03.847Z,3.96
2023-02-16T21:24:40.074Z,3.93
2023-02-16T21:26:12.225Z,3.90
2023-02-16T21:27:44.022Z,3.94
2023-02-16T21:29:27.646Z,4.01
2023-02-16T21:31:02.407Z,3.93
2023-02-16T21:32:34.223Z,4.05
2023-02-16T21:34:05.981Z,4.07
2023-02-16T21:35:37.686Z,4.03
2023-02-16T21:37:09.714Z,4.10
2023-02-16T21:38:43.367Z,4.16
2023-02-16T21:40:33.675Z,4.17
2023-02-16T21:42:05.480Z,4.11
2023-02-16T21:43:37.229Z,4.10
2023-02-16T21:45:15.841Z,4.01
2023-02-16T21:46:47.795Z,4.07
2023-02-16T21:48:38.140Z,4.11
2023-02-16T21:50:10.051Z,4.10
2023-02-16T21:51:45.178Z,4.02
2023-02-16T21:53:16.921Z,3.98
2023-02-16T21:55:08.936Z,3.92
2023-02-16T21:56:43.821Z,3.88
2023-02-16T21:58:15.698Z,3.91
2023-02-16T21:59:47.392Z,3.89
2023-02-16T22:01:22.834Z,3.90
2023-02-16T22:02:54.588Z,4.02
2023-02-16T22:04:26.380Z,4.08
2023-02-16T22:06:01.342Z,4.11
2023-02-16T22:07:33.631Z,4.08
2023-02-16T22:09:06.621Z,4.05
2023-02-16T22:10:39.844Z,4.09
2023-02-16T22:12:11.591Z,4.01
2023-02-16T22:13:43.366Z,3.96
2023-02-16T22:15:15.190Z,3.99
2023-02-16T22:16:47.264Z,4.00
2023-02-16T22:18:19.110Z,3.96
2023-02-16T22:19:51.227Z,4.05
2023-02-16T22:21:23.060Z,4.05
2023-02-16T22:22:54.835Z,4.06
2023-02-16T22:24:26.806Z,4.09
2023-02-16T22:26:00.046Z,3.96
2023-02-16T22:27:31.779Z,3.86
2023-02-16T22:29:03.969Z,3.87
2023-02-16T22:30:36.360Z,3.84